sensor_id;sensor_type;location;lat;lon;timestamp;P1;durP1;ratioP1;P2;durP2;ratioP2
39208;SDS011;24929;51.982;4.664;2023-04-15T00:00:27;5.78;;;3.47;;
39208;SDS011;24929;51.982;4.664;2023-04-15T00:02:55;12.52;;;4.38;;
39208;SDS011;24929;51.982;4.664;2023-04-15T00:05:20;11.25;;;4.03;;
39208;SDS011;24929;51.982;4.664;2023-04-15T00:07:46;10.35;;;3.90;;
39208;SDS011;24929;51.982;4.664;2023-04-15T00:10:12;3.97;;;3.13;;
39208;SDS011;24929;51.982;4.664;2023-04-15T00:12:38;10.32;;;4.60;;
39208;SDS011;24929;51.982;4.664;2023-04-15T00:15:05;6.18;;;3.42;;
39208;SDS011;24929;51.982;4.664;2023-04-15T00:17:33;4.10;;;3.33;;
39208;SDS011;24929;51.982;4.664;2023-04-15T00:19:58;6.68;;;4.30;;
39208;SDS011;24929;51.982;4.664;2023-04-15T00:22:25;5.45;;;3.53;;
39208;SDS011;24929;51.982;4.664;2023-04-15T00:24:52;9.32;;;4.10;;
39208;SDS011;24929;51.982;4.664;2023-04-15T00:27:18;10.60;;;4.30;;
39208;SDS011;24929;51.982;4.664;2023-04-15T00:29:43;11.00;;;4.50;;
39208;SDS011;24929;51.982;4.664;2023-04-15T00:32:09;5.70;;;3.92;;
39208;SDS011;24929;51.982;4.664;2023-04-15T00:34:34;7.38;;;4.40;;
39208;SDS011;24929;51.982;4.664;2023-04-15T00:37:00;5.78;;;4.00;;
39208;SDS011;24929;51.982;4.664;2023-04-15T00:39:26;9.82;;;4.22;;
39208;SDS011;24929;51.982;4.664;2023-04-15T00:41:52;4.60;;;3.90;;
39208;SDS011;24929;51.982;4.664;2023-04-15T00:44:18;6.40;;;3.95;;
39208;SDS011;24929;51.982;4.664;2023-04-15T00:46:43;7.90;;;4.10;;
39208;SDS011;24929;51.982;4.664;2023-04-15T00:49:10;5.38;;;4.68;;
39208;SDS011;24929;51.982;4.664;2023-04-15T00:51:37;6.50;;;4.22;;
39208;SDS011;24929;51.982;4.664;2023-04-15T00:54:02;4.70;;;3.85;;
39208;SDS011;24929;51.982;4.664;2023-04-15T00:56:29;8.82;;;4.20;;
39208;SDS011;24929;51.982;4.664;2023-04-15T00:58:55;7.82;;;4.40;;
39208;SDS011;24929;51.982;4.664;2023-04-15T01:01:21;6.53;;;4.53;;
39208;SDS011;24929;51.982;4.664;2023-04-15T01:03:49;9.52;;;4.50;;
39208;SDS011;24929;51.982;4.664;2023-04-15T01:06:15;6.00;;;4.70;;
39208;SDS011;24929;51.982;4.664;2023-04-15T01:08:41;5.88;;;4.50;;
39208;SDS011;24929;51.982;4.664;2023-04-15T01:11:07;8.15;;;4.55;;
39208;SDS011;24929;51.982;4.664;2023-04-15T01:13:34;10.10;;;4.70;;
39208;SDS011;24929;51.982;4.664;2023-04-15T01:16:00;6.55;;;4.75;;
39208;SDS011;24929;51.982;4.664;2023-04-15T01:18:27;5.68;;;4.13;;
39208;SDS011;24929;51.982;4.664;2023-04-15T01:20:54;9.65;;;4.50;;
39208;SDS011;24929;51.982;4.664;2023-04-15T01:23:22;8.13;;;5.22;;
39208;SDS011;24929;51.982;4.664;2023-04-15T01:25:48;8.45;;;4.72;;
39208;SDS011;24929;51.982;4.664;2023-04-15T01:28:15;6.38;;;5.03;;
39208;SDS011;24929;51.982;4.664;2023-04-15T01:30:40;5.10;;;4.57;;
39208;SDS011;24929;51.982;4.664;2023-04-15T01:33:06;6.15;;;4.88;;
39208;SDS011;24929;51.982;4.664;2023-04-15T01:35:31;5.78;;;4.35;;
39208;SDS011;24929;51.982;4.664;2023-04-15T01:38:00;13.18;;;4.97;;
39208;SDS011;24929;51.982;4.664;2023-04-15T01:42:55;6.22;;;5.18;;
39208;SDS011;24929;51.982;4.664;2023-04-15T01:45:20;8.75;;;5.30;;
39208;SDS011;24929;51.982;4.664;2023-04-15T01:47:46;9.63;;;4.68;;
39208;SDS011;24929;51.982;4.664;2023-04-15T01:50:11;5.00;;;4.10;;
39208;SDS011;24929;51.982;4.664;2023-04-15T01:52:37;5.13;;;4.05;;
39208;SDS011;24929;51.982;4.664;2023-04-15T01:55:02;4.10;;;3.70;;
39208;SDS011;24929;51.982;4.664;2023-04-15T01:57:28;8.45;;;4.70;;
39208;SDS011;24929;51.982;4.664;2023-04-15T01:59:53;12.10;;;5.43;;
39208;SDS011;24929;51.982;4.664;2023-04-15T02:02:19;7.57;;;5.22;;
39208;SDS011;24929;51.982;4.664;2023-04-15T02:04:44;6.85;;;5.22;;
39208;SDS011;24929;51.982;4.664;2023-04-15T02:07:09;8.13;;;5.05;;
39208;SDS011;24929;51.982;4.664;2023-04-15T02:09:35;7.97;;;4.63;;
39208;SDS011;24929;51.982;4.664;2023-04-15T02:12:00;9.27;;;4.68;;
39208;SDS011;24929;51.982;4.664;2023-04-15T02:14:25;6.80;;;4.70;;
39208;SDS011;24929;51.982;4.664;2023-04-15T02:16:51;19.40;;;5.38;;
39208;SDS011;24929;51.982;4.664;2023-04-15T02:19:16;11.00;;;5.18;;
39208;SDS011;24929;51.982;4.664;2023-04-15T02:21:42;9.98;;;5.38;;
39208;SDS011;24929;51.982;4.664;2023-04-15T02:24:07;6.22;;;4.68;;
39208;SDS011;24929;51.982;4.664;2023-04-15T02:26:33;6.72;;;5.60;;
39208;SDS011;24929;51.982;4.664;2023-04-15T02:28:58;7.80;;;5.70;;
39208;SDS011;24929;51.982;4.664;2023-04-15T02:31:24;6.10;;;4.78;;
39208;SDS011;24929;51.982;4.664;2023-04-15T02:33:50;6.75;;;4.47;;
39208;SDS011;24929;51.982;4.664;2023-04-15T02:36:16;8.68;;;5.28;;
39208;SDS011;24929;51.982;4.664;2023-04-15T02:38:41;9.75;;;4.97;;
39208;SDS011;24929;51.982;4.664;2023-04-15T02:41:09;5.07;;;4.53;;
39208;SDS011;24929;51.982;4.664;2023-04-15T02:43:34;5.18;;;4.65;;
39208;SDS011;24929;51.982;4.664;2023-04-15T02:46:00;6.72;;;5.22;;
39208;SDS011;24929;51.982;4.664;2023-04-15T02:48:25;8.68;;;5.13;;
39208;SDS011;24929;51.982;4.664;2023-04-15T02:50:51;6.07;;;4.78;;
39208;SDS011;24929;51.982;4.664;2023-04-15T02:53:16;7.05;;;5.50;;
39208;SDS011;24929;51.982;4.664;2023-04-15T02:55:41;6.15;;;4.68;;
39208;SDS011;24929;51.982;4.664;2023-04-15T02:58:07;5.47;;;4.97;;
39208;SDS011;24929;51.982;4.664;2023-04-15T03:00:32;5.35;;;4.75;;
39208;SDS011;24929;51.982;4.664;2023-04-15T03:02:59;5.75;;;4.55;;
39208;SDS011;24929;51.982;4.664;2023-04-15T03:05:26;5.90;;;4.25;;
39208;SDS011;24929;51.982;4.664;2023-04-15T03:07:52;5.93;;;4.70;;
39208;SDS011;24929;51.982;4.664;2023-04-15T03:10:17;6.30;;;4.93;;
39208;SDS011;24929;51.982;4.664;2023-04-15T03:12:43;6.80;;;4.82;;
39208;SDS011;24929;51.982;4.664;2023-04-15T03:15:09;5.90;;;4.75;;
39208;SDS011;24929;51.982;4.664;2023-04-15T03:17:34;7.20;;;3.75;;
39208;SDS011;24929;51.982;4.664;2023-04-15T03:20:03;7.10;;;4.82;;
39208;SDS011;24929;51.982;4.664;2023-04-15T03:22:33;6.72;;;4.82;;
39208;SDS011;24929;51.982;4.664;2023-04-15T03:24:58;8.48;;;4.97;;
39208;SDS011;24929;51.982;4.664;2023-04-15T03:27:24;6.60;;;4.43;;
39208;SDS011;24929;51.982;4.664;2023-04-15T03:29:49;12.20;;;4.95;;
39208;SDS011;24929;51.982;4.664;2023-04-15T03:32:15;8.35;;;4.93;;
39208;SDS011;24929;51.982;4.664;2023-04-15T03:34:41;6.07;;;5.15;;
39208;SDS011;24929;51.982;4.664;2023-04-15T03:37:08;6.35;;;4.97;;
39208;SDS011;24929;51.982;4.664;2023-04-15T03:39:33;6.50;;;4.32;;
39208;SDS011;24929;51.982;4.664;2023-04-15T03:41:59;4.97;;;4.47;;
39208;SDS011;24929;51.982;4.664;2023-04-15T03:44:25;6.05;;;4.20;;
39208;SDS011;24929;51.982;4.664;2023-04-15T03:46:51;8.80;;;4.65;;
39208;SDS011;24929;51.982;4.664;2023-04-15T03:49:17;6.70;;;4.38;;
39208;SDS011;24929;51.982;4.664;2023-04-15T03:51:43;7.40;;;5.10;;
39208;SDS011;24929;51.982;4.664;2023-04-15T03:54:08;5.53;;;4.60;;
39208;SDS011;24929;51.982;4.664;2023-04-15T03:56:34;7.97;;;5.32;;
39208;SDS011;24929;51.982;4.664;2023-04-15T03:58:59;8.45;;;5.38;;
39208;SDS011;24929;51.982;4.664;2023-04-15T04:01:25;5.30;;;4.80;;
39208;SDS011;24929;51.982;4.664;2023-04-15T04:03:53;6.97;;;5.30;;
39208;SDS011;24929;51.982;4.664;2023-04-15T04:06:18;8.25;;;5.00;;
39208;SDS011;24929;51.982;4.664;2023-04-15T04:08:44;7.80;;;5.22;;
39208;SDS011;24929;51.982;4.664;2023-04-15T04:11:10;9.05;;;4.78;;
39208;SDS011;24929;51.982;4.664;2023-04-15T04:13:35;6.57;;;5.05;;
39208;SDS011;24929;51.982;4.664;2023-04-15T04:16:01;5.05;;;4.53;;
39208;SDS011;24929;51.982;4.664;2023-04-15T04:18:26;6.95;;;4.70;;
39208;SDS011;24929;51.982;4.664;2023-04-15T04:20:52;6.82;;;4.18;;
39208;SDS011;24929;51.982;4.664;2023-04-15T04:23:17;7.88;;;4.75;;
39208;SDS011;24929;51.982;4.664;2023-04-15T04:25:42;7.28;;;4.95;;
39208;SDS011;24929;51.982;4.664;2023-04-15T04:28:08;6.30;;;5.00;;
39208;SDS011;24929;51.982;4.664;2023-04-15T04:30:34;10.23;;;6.75;;
39208;SDS011;24929;51.982;4.664;2023-04-15T04:32:59;8.90;;;4.90;;
39208;SDS011;24929;51.982;4.664;2023-04-15T04:35:25;5.28;;;4.78;;
39208;SDS011;24929;51.982;4.664;2023-04-15T04:37:51;9.80;;;5.25;;
39208;SDS011;24929;51.982;4.664;2023-04-15T04:40:17;10.00;;;6.07;;
39208;SDS011;24929;51.982;4.664;2023-04-15T04:42:43;6.95;;;5.25;;
39208;SDS011;24929;51.982;4.664;2023-04-15T04:45:08;5.78;;;5.13;;
39208;SDS011;24929;51.982;4.664;2023-04-15T04:47:35;7.22;;;5.43;;
39208;SDS011;24929;51.982;4.664;2023-04-15T04:50:00;5.72;;;4.75;;
39208;SDS011;24929;51.982;4.664;2023-04-15T04:52:26;7.78;;;5.07;;
39208;SDS011;24929;51.982;4.664;2023-04-15T04:54:51;7.82;;;5.95;;
39208;SDS011;24929;51.982;4.664;2023-04-15T04:57:16;7.97;;;5.38;;
39208;SDS011;24929;51.982;4.664;2023-04-15T04:59:42;9.00;;;6.57;;
39208;SDS011;24929;51.982;4.664;2023-04-15T05:02:07;8.40;;;5.82;;
39208;SDS011;24929;51.982;4.664;2023-04-15T05:04:32;6.35;;;5.13;;
39208;SDS011;24929;51.982;4.664;2023-04-15T05:06:58;6.93;;;5.28;;
39208;SDS011;24929;51.982;4.664;2023-04-15T05:09:23;5.88;;;5.28;;
39208;SDS011;24929;51.982;4.664;2023-04-15T05:11:49;12.95;;;7.43;;
39208;SDS011;24929;51.982;4.664;2023-04-15T05:14:14;7.05;;;5.63;;
39208;SDS011;24929;51.982;4.664;2023-04-15T05:16:40;7.88;;;6.00;;
39208;SDS011;24929;51.982;4.664;2023-04-15T05:19:05;10.38;;;6.18;;
39208;SDS011;24929;51.982;4.664;2023-04-15T05:21:31;7.70;;;6.57;;
39208;SDS011;24929;51.982;4.664;2023-04-15T05:23:57;10.40;;;5.47;;
39208;SDS011;24929;51.982;4.664;2023-04-15T05:26:22;8.50;;;5.90;;
39208;SDS011;24929;51.982;4.664;2023-04-15T05:28:48;6.35;;;4.82;;
39208;SDS011;24929;51.982;4.664;2023-04-15T05:31:14;8.50;;;6.38;;
39208;SDS011;24929;51.982;4.664;2023-04-15T05:33:40;6.55;;;5.63;;
39208;SDS011;24929;51.982;4.664;2023-04-15T05:36:05;8.93;;;6.18;;
39208;SDS011;24929;51.982;4.664;2023-04-15T05:38:31;8.40;;;6.00;;
39208;SDS011;24929;51.982;4.664;2023-04-15T05:40:56;6.20;;;5.10;;
39208;SDS011;24929;51.982;4.664;2023-04-15T05:43:22;9.10;;;5.40;;
39208;SDS011;24929;51.982;4.664;2023-04-15T05:45:47;7.90;;;5.50;;
39208;SDS011;24929;51.982;4.664;2023-04-15T05:48:12;7.30;;;4.53;;
39208;SDS011;24929;51.982;4.664;2023-04-15T05:50:41;6.40;;;4.38;;
39208;SDS011;24929;51.982;4.664;2023-04-15T05:53:06;5.03;;;3.85;;
39208;SDS011;24929;51.982;4.664;2023-04-15T05:55:32;10.68;;;4.63;;
39208;SDS011;24929;51.982;4.664;2023-04-15T05:57:58;5.00;;;4.13;;
39208;SDS011;24929;51.982;4.664;2023-04-15T06:00:23;6.93;;;4.55;;
39208;SDS011;24929;51.982;4.664;2023-04-15T06:02:49;5.68;;;4.18;;
39208;SDS011;24929;51.982;4.664;2023-04-15T06:05:14;7.53;;;4.97;;
39208;SDS011;24929;51.982;4.664;2023-04-15T06:07:40;6.07;;;4.50;;
39208;SDS011;24929;51.982;4.664;2023-04-15T06:10:05;4.22;;;3.83;;
39208;SDS011;24929;51.982;4.664;2023-04-15T06:12:31;7.10;;;5.03;;
39208;SDS011;24929;51.982;4.664;2023-04-15T06:22:06;5.47;;;4.20;;
39208;SDS011;24929;51.982;4.664;2023-04-15T06:24:32;5.05;;;4.40;;
39208;SDS011;24929;51.982;4.664;2023-04-15T06:26:57;7.70;;;4.68;;
39208;SDS011;24929;51.982;4.664;2023-04-15T06:29:22;5.68;;;4.47;;
39208;SDS011;24929;51.982;4.664;2023-04-15T06:31:48;5.00;;;4.50;;
39208;SDS011;24929;51.982;4.664;2023-04-15T06:34:13;7.55;;;4.95;;
39208;SDS011;24929;51.982;4.664;2023-04-15T06:43:42;10.60;;;4.75;;
39208;SDS011;24929;51.982;4.664;2023-04-15T06:46:08;8.75;;;5.50;;
39208;SDS011;24929;51.982;4.664;2023-04-15T06:48:34;9.07;;;5.18;;
39208;SDS011;24929;51.982;4.664;2023-04-15T06:51:00;6.07;;;5.10;;
39208;SDS011;24929;51.982;4.664;2023-04-15T06:53:25;7.82;;;5.68;;
39208;SDS011;24929;51.982;4.664;2023-04-15T06:55:54;6.60;;;4.95;;
39208;SDS011;24929;51.982;4.664;2023-04-15T06:58:19;6.60;;;5.25;;
39208;SDS011;24929;51.982;4.664;2023-04-15T07:00:45;6.70;;;4.70;;
39208;SDS011;24929;51.982;4.664;2023-04-15T07:03:11;8.30;;;5.60;;
39208;SDS011;24929;51.982;4.664;2023-04-15T07:05:37;8.15;;;4.75;;
39208;SDS011;24929;51.982;4.664;2023-04-15T07:08:03;5.70;;;4.88;;
39208;SDS011;24929;51.982;4.664;2023-04-15T07:10:29;5.63;;;5.07;;
39208;SDS011;24929;51.982;4.664;2023-04-15T07:12:55;6.38;;;4.40;;
39208;SDS011;24929;51.982;4.664;2023-04-15T07:15:21;5.85;;;4.55;;
39208;SDS011;24929;51.982;4.664;2023-04-15T07:17:47;6.28;;;4.72;;
39208;SDS011;24929;51.982;4.664;2023-04-15T07:20:13;5.13;;;4.63;;
39208;SDS011;24929;51.982;4.664;2023-04-15T07:22:38;4.15;;;3.78;;
39208;SDS011;24929;51.982;4.664;2023-04-15T07:25:04;4.75;;;4.10;;
39208;SDS011;24929;51.982;4.664;2023-04-15T07:27:30;6.55;;;4.20;;
39208;SDS011;24929;51.982;4.664;2023-04-15T07:29:55;5.15;;;4.20;;
39208;SDS011;24929;51.982;4.664;2023-04-15T07:32:21;4.70;;;4.00;;
39208;SDS011;24929;51.982;4.664;2023-04-15T07:34:46;5.45;;;4.80;;
39208;SDS011;24929;51.982;4.664;2023-04-15T07:37:12;7.40;;;5.10;;
39208;SDS011;24929;51.982;4.664;2023-04-15T07:39:37;4.80;;;4.18;;
39208;SDS011;24929;51.982;4.664;2023-04-15T07:42:03;6.00;;;4.45;;
39208;SDS011;24929;51.982;4.664;2023-04-15T07:44:28;5.70;;;4.18;;
39208;SDS011;24929;51.982;4.664;2023-04-15T07:46:54;5.05;;;3.97;;
39208;SDS011;24929;51.982;4.664;2023-04-15T07:49:23;5.78;;;5.10;;
39208;SDS011;24929;51.982;4.664;2023-04-15T07:51:48;5.28;;;4.72;;
39208;SDS011;24929;51.982;4.664;2023-04-15T07:54:14;5.50;;;5.00;;
39208;SDS011;24929;51.982;4.664;2023-04-15T07:56:40;5.93;;;4.55;;
39208;SDS011;24929;51.982;4.664;2023-04-15T07:59:05;5.03;;;4.03;;
39208;SDS011;24929;51.982;4.664;2023-04-15T08:01:31;5.10;;;4.13;;
39208;SDS011;24929;51.982;4.664;2023-04-15T08:03:57;4.60;;;4.20;;
39208;SDS011;24929;51.982;4.664;2023-04-15T08:06:23;4.88;;;4.22;;
39208;SDS011;24929;51.982;4.664;2023-04-15T08:08:48;4.93;;;3.78;;
39208;SDS011;24929;51.982;4.664;2023-04-15T08:11:14;4.22;;;3.33;;
39208;SDS011;24929;51.982;4.664;2023-04-15T08:13:40;6.15;;;4.45;;
39208;SDS011;24929;51.982;4.664;2023-04-15T08:19:27;4.07;;;3.72;;
39208;SDS011;24929;51.982;4.664;2023-04-15T08:21:52;6.25;;;4.43;;
39208;SDS011;24929;51.982;4.664;2023-04-15T08:24:18;6.70;;;4.63;;
39208;SDS011;24929;51.982;4.664;2023-04-15T08:26:43;7.22;;;4.97;;
39208;SDS011;24929;51.982;4.664;2023-04-15T08:29:10;6.50;;;4.10;;
39208;SDS011;24929;51.982;4.664;2023-04-15T08:31:36;4.38;;;3.97;;
39208;SDS011;24929;51.982;4.664;2023-04-15T08:34:01;5.40;;;3.95;;
39208;SDS011;24929;51.982;4.664;2023-04-15T08:36:27;5.28;;;3.90;;
39208;SDS011;24929;51.982;4.664;2023-04-15T08:38:53;4.93;;;4.38;;
39208;SDS011;24929;51.982;4.664;2023-04-15T08:41:22;9.40;;;4.75;;
39208;SDS011;24929;51.982;4.664;2023-04-15T08:43:55;6.50;;;4.03;;
39208;SDS011;24929;51.982;4.664;2023-04-15T08:46:22;5.30;;;4.35;;
39208;SDS011;24929;51.982;4.664;2023-04-15T08:48:48;5.72;;;4.25;;
39208;SDS011;24929;51.982;4.664;2023-04-15T08:51:15;5.35;;;4.43;;
39208;SDS011;24929;51.982;4.664;2023-04-15T08:53:44;5.75;;;4.30;;
39208;SDS011;24929;51.982;4.664;2023-04-15T08:56:11;4.32;;;3.67;;
39208;SDS011;24929;51.982;4.664;2023-04-15T08:58:39;5.03;;;4.28;;
39208;SDS011;24929;51.982;4.664;2023-04-15T09:01:05;9.90;;;4.43;;
39208;SDS011;24929;51.982;4.664;2023-04-15T09:03:31;3.83;;;3.45;;
39208;SDS011;24929;51.982;4.664;2023-04-15T09:05:57;4.43;;;3.97;;
39208;SDS011;24929;51.982;4.664;2023-04-15T09:08:23;4.40;;;3.70;;
39208;SDS011;24929;51.982;4.664;2023-04-15T09:10:49;4.90;;;4.40;;
39208;SDS011;24929;51.982;4.664;2023-04-15T09:13:15;4.78;;;4.05;;
39208;SDS011;24929;51.982;4.664;2023-04-15T09:15:40;4.80;;;3.50;;
39208;SDS011;24929;51.982;4.664;2023-04-15T09:18:06;4.93;;;4.03;;
39208;SDS011;24929;51.982;4.664;2023-04-15T09:20:39;5.07;;;3.97;;
39208;SDS011;24929;51.982;4.664;2023-04-15T09:23:11;5.78;;;3.58;;
39208;SDS011;24929;51.982;4.664;2023-04-15T09:25:38;3.63;;;3.13;;
39208;SDS011;24929;51.982;4.664;2023-04-15T09:28:06;5.20;;;3.58;;
39208;SDS011;24929;51.982;4.664;2023-04-15T09:30:32;4.30;;;2.72;;
39208;SDS011;24929;51.982;4.664;2023-04-15T09:32:59;6.28;;;3.80;;
39208;SDS011;24929;51.982;4.664;2023-04-15T09:35:32;5.30;;;3.75;;
39208;SDS011;24929;51.982;4.664;2023-04-15T09:40:34;4.65;;;4.05;;
39208;SDS011;24929;51.982;4.664;2023-04-15T09:43:02;4.38;;;3.40;;
39208;SDS011;24929;51.982;4.664;2023-04-15T09:45:29;6.45;;;3.35;;
39208;SDS011;24929;51.982;4.664;2023-04-15T09:47:59;4.30;;;3.63;;
39208;SDS011;24929;51.982;4.664;2023-04-15T09:50:41;6.97;;;2.85;;
39208;SDS011;24929;51.982;4.664;2023-04-15T09:53:10;3.45;;;3.00;;
39208;SDS011;24929;51.982;4.664;2023-04-15T09:55:36;3.47;;;2.42;;
39208;SDS011;24929;51.982;4.664;2023-04-15T09:58:01;5.88;;;3.80;;
39208;SDS011;24929;51.982;4.664;2023-04-15T10:00:32;5.32;;;3.05;;
39208;SDS011;24929;51.982;4.664;2023-04-15T10:02:57;3.67;;;2.20;;
39208;SDS011;24929;51.982;4.664;2023-04-15T10:05:23;3.15;;;2.58;;
39208;SDS011;24929;51.982;4.664;2023-04-15T10:07:49;4.25;;;2.10;;
39208;SDS011;24929;51.982;4.664;2023-04-15T10:10:18;1.30;;;1.17;;
39208;SDS011;24929;51.982;4.664;2023-04-15T10:12:44;4.72;;;2.20;;
39208;SDS011;24929;51.982;4.664;2023-04-15T10:15:14;2.28;;;1.67;;
39208;SDS011;24929;51.982;4.664;2023-04-15T10:17:41;3.15;;;2.50;;
39208;SDS011;24929;51.982;4.664;2023-04-15T10:20:08;2.40;;;1.60;;
39208;SDS011;24929;51.982;4.664;2023-04-15T10:22:34;3.65;;;1.63;;
39208;SDS011;24929;51.982;4.664;2023-04-15T10:25:01;2.00;;;1.60;;
39208;SDS011;24929;51.982;4.664;2023-04-15T10:27:28;5.28;;;2.20;;
39208;SDS011;24929;51.982;4.664;2023-04-15T10:29:54;1.75;;;1.40;;
39208;SDS011;24929;51.982;4.664;2023-04-15T10:32:20;2.25;;;2.00;;
39208;SDS011;24929;51.982;4.664;2023-04-15T10:34:48;3.33;;;2.40;;
39208;SDS011;24929;51.982;4.664;2023-04-15T10:37:22;4.35;;;2.22;;
39208;SDS011;24929;51.982;4.664;2023-04-15T10:40:10;2.00;;;1.80;;
39208;SDS011;24929;51.982;4.664;2023-04-15T10:42:50;2.70;;;1.63;;
39208;SDS011;24929;51.982;4.664;2023-04-15T10:45:15;3.03;;;2.33;;
39208;SDS011;24929;51.982;4.664;2023-04-15T10:47:43;3.03;;;2.30;;
39208;SDS011;24929;51.982;4.664;2023-04-15T10:50:09;1.55;;;1.45;;
39208;SDS011;24929;51.982;4.664;2023-04-15T10:52:34;2.72;;;2.22;;
39208;SDS011;24929;51.982;4.664;2023-04-15T10:55:15;1.63;;;1.52;;
39208;SDS011;24929;51.982;4.664;2023-04-15T10:57:44;1.67;;;1.58;;
39208;SDS011;24929;51.982;4.664;2023-04-15T11:00:14;2.65;;;1.88;;
39208;SDS011;24929;51.982;4.664;2023-04-15T11:02:42;1.90;;;1.50;;
39208;SDS011;24929;51.982;4.664;2023-04-15T11:05:47;1.73;;;1.33;;
39208;SDS011;24929;51.982;4.664;2023-04-15T11:08:15;2.08;;;1.70;;
39208;SDS011;24929;51.982;4.664;2023-04-15T11:18:16;4.28;;;1.90;;
39208;SDS011;24929;51.982;4.664;2023-04-15T11:20:45;3.05;;;2.20;;
39208;SDS011;24929;51.982;4.664;2023-04-15T11:23:19;3.10;;;2.58;;
39208;SDS011;24929;51.982;4.664;2023-04-15T11:25:53;7.95;;;2.95;;
39208;SDS011;24929;51.982;4.664;2023-04-15T11:28:19;2.33;;;2.13;;
39208;SDS011;24929;51.982;4.664;2023-04-15T11:30:44;2.92;;;2.22;;
39208;SDS011;24929;51.982;4.664;2023-04-15T11:33:10;2.47;;;2.28;;
39208;SDS011;24929;51.982;4.664;2023-04-15T11:35:38;3.15;;;2.70;;
39208;SDS011;24929;51.982;4.664;2023-04-15T11:38:09;4.00;;;2.50;;
39208;SDS011;24929;51.982;4.664;2023-04-15T11:40:37;3.13;;;2.80;;
39208;SDS011;24929;51.982;4.664;2023-04-15T11:43:09;5.38;;;3.03;;
39208;SDS011;24929;51.982;4.664;2023-04-15T11:45:52;3.15;;;2.30;;
39208;SDS011;24929;51.982;4.664;2023-04-15T11:48:18;7.07;;;3.08;;
39208;SDS011;24929;51.982;4.664;2023-04-15T11:50:44;3.25;;;2.55;;
39208;SDS011;24929;51.982;4.664;2023-04-15T11:53:11;3.83;;;2.70;;
39208;SDS011;24929;51.982;4.664;2023-04-15T11:55:45;4.43;;;3.08;;
39208;SDS011;24929;51.982;4.664;2023-04-15T11:58:16;3.55;;;2.50;;
39208;SDS011;24929;51.982;4.664;2023-04-15T12:00:46;3.08;;;2.60;;
39208;SDS011;24929;51.982;4.664;2023-04-15T12:11:21;2.70;;;2.30;;
39208;SDS011;24929;51.982;4.664;2023-04-15T12:16:50;6.97;;;2.28;;
39208;SDS011;24929;51.982;4.664;2023-04-15T12:19:21;3.33;;;2.08;;
39208;SDS011;24929;51.982;4.664;2023-04-15T12:21:49;3.50;;;2.33;;
39208;SDS011;24929;51.982;4.664;2023-04-15T12:24:18;4.25;;;2.30;;
39208;SDS011;24929;51.982;4.664;2023-04-15T12:26:46;4.28;;;2.13;;
39208;SDS011;24929;51.982;4.664;2023-04-15T12:29:30;5.25;;;2.00;;
39208;SDS011;24929;51.982;4.664;2023-04-15T12:31:58;1.40;;;1.30;;
39208;SDS011;24929;51.982;4.664;2023-04-15T12:34:30;2.17;;;1.33;;
39208;SDS011;24929;51.982;4.664;2023-04-15T12:36:57;2.10;;;1.58;;
39208;SDS011;24929;51.982;4.664;2023-04-15T12:39:24;2.83;;;1.90;;
39208;SDS011;24929;51.982;4.664;2023-04-15T12:41:51;2.28;;;1.40;;
39208;SDS011;24929;51.982;4.664;2023-04-15T12:44:17;2.03;;;1.42;;
39208;SDS011;24929;51.982;4.664;2023-04-15T12:46:42;1.13;;;1.02;;
39208;SDS011;24929;51.982;4.664;2023-04-15T12:49:08;4.32;;;1.05;;
39208;SDS011;24929;51.982;4.664;2023-04-15T12:51:33;3.30;;;1.52;;
39208;SDS011;24929;51.982;4.664;2023-04-15T12:53:59;1.75;;;1.50;;
39208;SDS011;24929;51.982;4.664;2023-04-15T12:56:24;12.07;;;2.08;;
39208;SDS011;24929;51.982;4.664;2023-04-15T12:58:49;3.38;;;1.52;;
39208;SDS011;24929;51.982;4.664;2023-04-15T13:01:15;2.63;;;1.70;;
39208;SDS011;24929;51.982;4.664;2023-04-15T13:03:41;9.60;;;1.90;;
39208;SDS011;24929;51.982;4.664;2023-04-15T13:06:07;42.90;;;8.73;;
39208;SDS011;24929;51.982;4.664;2023-04-15T13:08:32;3.95;;;1.77;;
39208;SDS011;24929;51.982;4.664;2023-04-15T13:10:57;2.90;;;1.40;;
39208;SDS011;24929;51.982;4.664;2023-04-15T13:13:23;1.77;;;1.45;;
39208;SDS011;24929;51.982;4.664;2023-04-15T13:15:48;1.27;;;1.17;;
39208;SDS011;24929;51.982;4.664;2023-04-15T13:18:14;30.20;;;7.30;;
39208;SDS011;24929;51.982;4.664;2023-04-15T13:20:40;2.95;;;1.63;;
39208;SDS011;24929;51.982;4.664;2023-04-15T13:23:05;2.40;;;1.55;;
39208;SDS011;24929;51.982;4.664;2023-04-15T13:28:43;1.88;;;1.10;;
39208;SDS011;24929;51.982;4.664;2023-04-15T13:31:09;4.00;;;1.50;;
39208;SDS011;24929;51.982;4.664;2023-04-15T13:33:35;7.45;;;1.75;;
39208;SDS011;24929;51.982;4.664;2023-04-15T13:36:00;1.35;;;1.15;;
39208;SDS011;24929;51.982;4.664;2023-04-15T13:38:26;1.98;;;1.50;;
39208;SDS011;24929;51.982;4.664;2023-04-15T13:40:51;1.25;;;1.15;;
39208;SDS011;24929;51.982;4.664;2023-04-15T13:43:16;1.02;;;1.00;;
39208;SDS011;24929;51.982;4.664;2023-04-15T13:45:42;4.18;;;1.58;;
39208;SDS011;24929;51.982;4.664;2023-04-15T13:48:08;3.50;;;1.40;;
39208;SDS011;24929;51.982;4.664;2023-04-15T13:50:34;1.52;;;1.20;;
39208;SDS011;24929;51.982;4.664;2023-04-15T13:52:59;2.40;;;1.13;;
39208;SDS011;24929;51.982;4.664;2023-04-15T13:55:25;2.55;;;1.50;;
39208;SDS011;24929;51.982;4.664;2023-04-15T13:57:50;2.17;;;1.65;;
39208;SDS011;24929;51.982;4.664;2023-04-15T14:00:16;1.17;;;1.10;;
39208;SDS011;24929;51.982;4.664;2023-04-15T14:02:41;2.17;;;1.38;;
39208;SDS011;24929;51.982;4.664;2023-04-15T14:05:07;5.15;;;1.70;;
39208;SDS011;24929;51.982;4.664;2023-04-15T14:07:33;2.25;;;1.27;;
39208;SDS011;24929;51.982;4.664;2023-04-15T14:09:58;1.55;;;1.13;;
39208;SDS011;24929;51.982;4.664;2023-04-15T14:12:24;1.00;;;0.90;;
39208;SDS011;24929;51.982;4.664;2023-04-15T14:14:52;0.88;;;0.88;;
39208;SDS011;24929;51.982;4.664;2023-04-15T14:17:18;1.75;;;0.75;;
39208;SDS011;24929;51.982;4.664;2023-04-15T14:19:43;1.42;;;1.08;;
39208;SDS011;24929;51.982;4.664;2023-04-15T14:22:09;1.23;;;1.08;;
39208;SDS011;24929;51.982;4.664;2023-04-15T14:24:34;1.08;;;0.98;;
39208;SDS011;24929;51.982;4.664;2023-04-15T14:27:00;1.50;;;0.85;;
39208;SDS011;24929;51.982;4.664;2023-04-15T14:29:26;2.22;;;0.70;;
39208;SDS011;24929;51.982;4.664;2023-04-15T14:31:51;1.85;;;0.90;;
39208;SDS011;24929;51.982;4.664;2023-04-15T14:34:17;1.38;;;0.90;;
39208;SDS011;24929;51.982;4.664;2023-04-15T14:36:42;1.15;;;0.60;;
39208;SDS011;24929;51.982;4.664;2023-04-15T14:39:08;0.80;;;0.70;;
39208;SDS011;24929;51.982;4.664;2023-04-15T14:41:33;3.65;;;0.90;;
39208;SDS011;24929;51.982;4.664;2023-04-15T14:43:59;2.03;;;0.82;;
39208;SDS011;24929;51.982;4.664;2023-04-15T14:46:25;2.15;;;1.15;;
39208;SDS011;24929;51.982;4.664;2023-04-15T14:48:51;2.67;;;1.25;;
39208;SDS011;24929;51.982;4.664;2023-04-15T14:51:16;1.70;;;1.20;;
39208;SDS011;24929;51.982;4.664;2023-04-15T14:53:42;4.68;;;1.20;;
39208;SDS011;24929;51.982;4.664;2023-04-15T14:56:08;2.97;;;1.05;;
39208;SDS011;24929;51.982;4.664;2023-04-15T14:58:33;4.82;;;1.17;;
39208;SDS011;24929;51.982;4.664;2023-04-15T15:00:59;4.28;;;1.23;;
39208;SDS011;24929;51.982;4.664;2023-04-15T15:06:21;4.28;;;1.20;;
39208;SDS011;24929;51.982;4.664;2023-04-15T15:08:47;1.70;;;1.33;;
39208;SDS011;24929;51.982;4.664;2023-04-15T15:11:13;1.73;;;1.35;;
39208;SDS011;24929;51.982;4.664;2023-04-15T15:13:38;4.10;;;1.02;;
39208;SDS011;24929;51.982;4.664;2023-04-15T15:16:04;1.05;;;0.80;;
39208;SDS011;24929;51.982;4.664;2023-04-15T15:18:30;1.10;;;0.85;;
39208;SDS011;24929;51.982;4.664;2023-04-15T15:20:55;1.40;;;0.85;;
39208;SDS011;24929;51.982;4.664;2023-04-15T15:23:20;1.08;;;0.93;;
39208;SDS011;24929;51.982;4.664;2023-04-15T15:25:46;0.77;;;0.70;;
39208;SDS011;24929;51.982;4.664;2023-04-15T15:28:11;1.05;;;0.88;;
39208;SDS011;24929;51.982;4.664;2023-04-15T15:30:37;1.40;;;0.80;;